Time;durP1;ratioP1;P1;durP2;ratioP2;P2;SDS_P1;SDS_P2;PMS_P1;PMS_P2;Temp;Humidity;BMP_temperature;BMP_pressure;BME280_temperature;BME280_humidity;BME280_pressure;Samples;Min_cycle;Max_cycle;Signal;HPM_P1;HPM_P2
2023/01/11 00:00:08;;;;;;;1999.90;368.30;;;4.80;99.90;;;;;;5029040;28;20280;-51
2023/01/11 00:02:36;;;;;;;1660.83;267.47;;;4.80;99.90;;;;;;5028925;28;20305;-51
2023/01/11 00:05:05;;;;;;;1999.90;312.00;;;4.80;99.90;;;;;;5029246;28;20210;-51
2023/01/11 00:07:33;;;;;;;1999.90;519.67;;;4.80;99.90;;;;;;5028206;28;20776;-51
2023/01/11 00:10:05;;;;;;;1830.77;269.30;;;4.80;99.90;;;;;;5026010;28;20247;-50
2023/01/11 00:12:33;;;;;;;1999.90;430.50;;;4.80;99.90;;;;;;5024049;28;20643;-50
2023/01/11 00:15:01;;;;;;;1999.90;338.10;;;4.80;99.90;;;;;;5026269;28;20636;-50
2023/01/11 00:17:29;;;;;;;1999.90;344.57;;;4.90;99.90;;;;;;5029015;28;20262;-51
2023/01/11 00:19:57;;;;;;;1999.90;325.33;;;4.90;99.90;;;;;;5028628;28;20673;-50
2023/01/11 00:22:26;;;;;;;1624.43;260.33;;;4.90;99.90;;;;;;5027857;28;20214;-51
2023/01/11 00:24:54;;;;;;;1995.10;213.27;;;4.80;99.90;;;;;;5028842;28;20207;-51
2023/01/11 00:27:23;;;;;;;1747.23;222.47;;;5.00;99.90;;;;;;5028765;28;20313;-49
2023/01/11 00:29:51;;;;;;;1142.53;126.67;;;4.90;99.90;;;;;;5028691;28;20245;-51
2023/01/11 00:32:19;;;;;;;1999.90;524.70;;;5.00;99.90;;;;;;5027941;28;20243;-51
2023/01/11 00:34:47;;;;;;;1971.53;290.43;;;4.90;99.90;;;;;;5028572;28;20208;-51
2023/01/11 00:37:15;;;;;;;1924.83;283.70;;;5.00;99.90;;;;;;5028094;28;20718;-51
2023/01/11 00:39:43;;;;;;;1999.90;357.47;;;5.00;99.90;;;;;;5021938;28;20246;-51
2023/01/11 00:48:00;;;;;;;1999.90;397.73;;;5.00;99.90;;;;;;5027040;28;20262;-51
2023/01/11 00:50:29;;;;;;;1928.57;343.20;;;5.00;99.90;;;;;;5027887;28;20208;-50
2023/01/11 00:52:58;;;;;;;1105.87;182.03;;;5.00;99.90;;;;;;5032123;28;20255;-51
2023/01/11 00:55:27;;;;;;;1999.90;427.10;;;5.10;99.90;;;;;;5031746;28;20628;-51
2023/01/11 00:57:55;;;;;;;1592.63;200.00;;;5.10;99.90;;;;;;5019004;28;20322;-51
2023/01/11 01:00:25;;;;;;;1952.50;389.93;;;5.10;99.90;;;;;;5031962;28;20314;-51
2023/01/11 01:02:53;;;;;;;1830.17;237.70;;;5.10;99.90;;;;;;5031583;28;20235;-51
2023/01/11 01:05:22;;;;;;;1999.90;543.97;;;5.20;99.90;;;;;;5031829;28;20213;-56
2023/01/11 01:07:50;;;;;;;1999.90;359.13;;;5.10;99.90;;;;;;5031961;28;20257;-52
2023/01/11 01:10:19;;;;;;;669.87;141.83;;;5.20;99.90;;;;;;5024361;28;20298;-50
2023/01/11 01:15:34;;;;;;;1999.90;327.87;;;5.10;99.90;;;;;;5032138;28;20647;-51
2023/01/11 01:18:03;;;;;;;1325.10;203.97;;;5.20;99.90;;;;;;5031870;28;20243;-51
2023/01/11 01:20:31;;;;;;;593.30;95.70;;;5.10;99.90;;;;;;5031757;28;20768;-51
2023/01/11 01:22:59;;;;;;;1999.90;518.47;;;5.20;99.90;;;;;;5032013;28;20215;-51
2023/01/11 01:25:27;;;;;;;1547.93;198.87;;;5.20;99.90;;;;;;5031243;28;20335;-50
2023/01/11 01:27:55;;;;;;;539.73;98.07;;;5.20;99.90;;;;;;5032106;28;20259;-51
2023/01/11 01:30:23;;;;;;;1999.90;323.83;;;5.20;99.90;;;;;;5023790;28;20243;-51
2023/01/11 01:32:53;;;;;;;1999.90;453.13;;;5.20;99.90;;;;;;5031491;28;20743;-51
2023/01/11 01:35:21;;;;;;;1999.90;457.57;;;5.20;99.90;;;;;;5031669;28;20257;-51
2023/01/11 01:37:49;;;;;;;1999.90;271.83;;;5.20;99.90;;;;;;5031527;28;20280;-51
2023/01/11 01:40:17;;;;;;;1836.67;303.20;;;5.20;99.90;;;;;;5031655;28;20250;-50
2023/01/11 01:42:45;;;;;;;959.30;177.47;;;5.20;99.90;;;;;;5031328;28;20250;-51
2023/01/11 01:45:22;;;;;;;1999.90;317.93;;;5.20;99.90;;;;;;5031396;28;20295;-51
2023/01/11 01:47:57;;;;;;;1999.90;575.87;;;5.20;99.90;;;;;;5019495;28;20232;-51
2023/01/11 01:50:27;;;;;;;1999.90;621.07;;;5.20;99.90;;;;;;5027579;28;20714;-51
2023/01/11 01:53:01;;;;;;;1999.90;477.67;;;5.20;99.90;;;;;;5030926;28;20295;-51
2023/01/11 01:55:34;;;;;;;1762.47;234.10;;;5.20;99.90;;;;;;5019715;28;20217;-51
2023/01/11 01:58:04;;;;;;;616.77;94.37;;;5.20;99.90;;;;;;5031138;28;20228;-51
2023/01/11 02:00:32;;;;;;;1316.73;242.97;;;5.30;99.90;;;;;;5031320;28;20235;-51
2023/01/11 02:03:02;;;;;;;1274.53;174.60;;;5.20;99.90;;;;;;5030489;28;20211;-51
2023/01/11 02:05:30;;;;;;;1999.90;523.63;;;5.30;99.90;;;;;;5030859;28;20588;-52
2023/01/11 02:08:00;;;;;;;1999.90;564.73;;;5.30;99.90;;;;;;5043338;28;20311;-51
2023/01/11 02:10:28;;;;;;;945.00;186.70;;;5.20;99.90;;;;;;5046917;28;20214;-51
2023/01/11 02:13:00;;;;;;;1999.90;371.30;;;5.30;99.90;;;;;;5028875;28;20237;-51
2023/01/11 02:15:29;;;;;;;1674.93;248.93;;;5.30;99.90;;;;;;5044862;28;20216;-51
2023/01/11 02:17:57;;;;;;;807.00;125.37;;;5.30;99.90;;;;;;5036802;28;20677;-51
2023/01/11 02:20:49;;;;;;;519.80;114.43;;;5.30;99.90;;;;;;5049343;28;20251;-50
2023/01/11 02:23:52;;;;;;;1701.47;214.40;;;5.40;99.90;;;;;;5049921;28;20681;-51
2023/01/11 02:26:43;;;;;;;1863.80;285.83;;;5.40;99.90;;;;;;5030755;28;20808;-50
2023/01/11 02:29:19;;;;;;;1999.90;543.07;;;5.30;99.90;;;;;;5031728;28;20209;-51
2023/01/11 02:31:54;;;;;;;1999.90;333.17;;;5.30;99.90;;;;;;5050301;28;20360;-50
2023/01/11 02:34:32;;;;;;;1999.90;544.47;;;5.30;99.90;;;;;;5050526;28;20287;-51
2023/01/11 02:37:11;;;;;;;1999.90;613.57;;;5.30;99.90;;;;;;5049916;28;20209;-50
2023/01/11 02:39:50;;;;;;;1450.83;212.73;;;5.20;99.90;;;;;;5050036;28;20242;-50
2023/01/11 02:45:19;;;;;;;759.80;131.57;;;5.30;99.90;;;;;;5030417;28;20295;-51
2023/01/11 02:47:55;;;;;;;1878.87;267.60;;;5.30;99.90;;;;;;5044349;28;20255;-51
2023/01/11 02:50:29;;;;;;;800.03;118.70;;;5.30;99.90;;;;;;5039560;28;20253;-50
2023/01/11 02:53:02;;;;;;;1439.53;195.20;;;5.40;99.90;;;;;;5041852;28;20252;-51
2023/01/11 02:55:34;;;;;;;527.67;106.77;;;5.40;99.90;;;;;;5050067;28;20297;-51
2023/01/11 02:58:05;;;;;;;1400.07;219.00;;;5.40;99.90;;;;;;5035026;28;20226;-51
2023/01/11 03:00:37;;;;;;;1847.80;221.07;;;5.50;99.90;;;;;;5030269;28;20285;-50
2023/01/11 03:03:07;;;;;;;1999.90;421.30;;;5.40;99.90;;;;;;5022571;28;20228;-51
2023/01/11 03:05:41;;;;;;;849.97;157.30;;;5.40;99.90;;;;;;5030273;28;20209;-51
2023/01/11 03:08:23;;;;;;;1999.90;555.07;;;5.50;99.90;;;;;;5029840;28;20230;-51
2023/01/11 03:11:01;;;;;;;685.17;96.13;;;5.50;99.90;;;;;;5029443;28;20258;-49
2023/01/11 03:13:43;;;;;;;1616.53;183.23;;;5.60;99.90;;;;;;5029945;28;20300;-51
2023/01/11 03:16:24;;;;;;;1999.90;252.27;;;5.60;99.90;;;;;;5049948;28;20295;-52
2023/01/11 03:19:16;;;;;;;71.97;31.77;;;5.50;99.90;;;;;;5049552;28;20756;-51
2023/01/11 03:21:59;;;;;;;1193.13;198.47;;;5.60;99.90;;;;;;5047989;28;20307;-51
2023/01/11 03:24:33;;;;;;;1236.90;206.00;;;5.60;99.90;;;;;;5022311;28;20663;-51
2023/01/11 03:27:20;;;;;;;1256.13;204.07;;;5.60;99.90;;;;;;5030531;28;20768;-50
2023/01/11 03:29:54;;;;;;;418.87;92.17;;;5.60;99.90;;;;;;5027077;28;20241;-51
2023/01/11 03:32:32;;;;;;;1999.90;367.43;;;5.60;99.90;;;;;;5042322;28;20209;-51
2023/01/11 03:35:10;;;;;;;1329.97;155.37;;;5.60;99.90;;;;;;5036963;28;20204;-51
2023/01/11 03:37:43;;;;;;;474.57;97.23;;;5.70;99.90;;;;;;5043316;28;20260;-50
2023/01/11 03:40:16;;;;;;;1999.90;480.70;;;5.70;99.90;;;;;;5049198;28;20209;-51
2023/01/11 03:45:38;;;;;;;1999.90;551.70;;;5.70;99.90;;;;;;5033767;28;20207;-50
2023/01/11 03:48:11;;;;;;;1999.90;520.97;;;5.60;99.90;;;;;;5022944;28;20262;-52
2023/01/11 03:50:40;;;;;;;1976.80;246.17;;;5.70;99.90;;;;;;5048575;28;20677;-52
2023/01/11 03:53:10;;;;;;;1383.23;184.43;;;5.70;99.90;;;;;;5047662;28;20199;-51
2023/01/11 03:55:42;;;;;;;1999.90;591.53;;;5.70;99.90;;;;;;5039357;28;20209;-51
2023/01/11 03:58:12;;;;;;;1999.90;747.90;;;5.70;99.90;;;;;;5033719;28;20241;-51
2023/01/11 04:00:41;;;;;;;1999.90;413.73;;;5.60;99.90;;;;;;5047873;28;20213;-51
2023/01/11 04:03:13;;;;;;;1999.90;602.93;;;5.70;99.90;;;;;;5047584;28;20264;-51
2023/01/11 04:05:44;;;;;;;1152.03;167.97;;;5.60;99.90;;;;;;5048654;28;20241;-51
2023/01/11 04:08:12;;;;;;;1981.63;268.07;;;5.80;99.90;;;;;;5039144;28;20265;-51
2023/01/11 04:10:40;;;;;;;1999.90;379.63;;;5.80;99.90;;;;;;5043282;28;20220;-51
2023/01/11 04:13:08;;;;;;;1999.90;487.53;;;5.70;99.90;;;;;;5045625;28;20243;-51
2023/01/11 04:15:36;;;;;;;1999.90;399.73;;;5.70;99.90;;;;;;5048869;28;20294;-51
2023/01/11 04:18:05;;;;;;;929.00;146.00;;;5.80;99.90;;;;;;5029557;28;20319;-52
2023/01/11 04:20:35;;;;;;;1991.80;264.67;;;5.80;99.90;;;;;;5045208;28;20230;-53
2023/01/11 04:23:04;;;;;;;1999.90;296.10;;;5.80;99.90;;;;;;5051846;28;20885;-51
2023/01/11 04:25:32;;;;;;;1999.90;380.93;;;5.80;99.90;;;;;;5032582;28;20240;-51
2023/01/11 04:28:00;;;;;;;1999.90;583.33;;;5.70;99.90;;;;;;5051526;28;20285;-52
2023/01/11 04:30:28;;;;;;;1567.23;227.53;;;5.70;99.90;;;;;;5043738;28;20246;-51
2023/01/11 04:32:58;;;;;;;1999.90;382.37;;;5.80;99.90;;;;;;5052295;28;20310;-52
2023/01/11 04:35:26;;;;;;;1999.90;360.57;;;5.70;99.90;;;;;;5052778;28;20205;-52
2023/01/11 04:37:56;;;;;;;1999.90;611.10;;;5.80;99.90;;;;;;5052312;28;20268;-52
2023/01/11 04:40:25;;;;;;;1999.90;307.37;;;5.70;99.90;;;;;;5052604;28;20205;-51
2023/01/11 04:42:52;;;;;;;1418.57;231.37;;;5.80;99.90;;;;;;5051927;28;20259;-52
2023/01/11 04:45:20;;;;;;;1974.23;330.27;;;5.80;99.90;;;;;;5052106;28;20261;-52
2023/01/11 04:47:53;;;;;;;1999.90;350.90;;;5.70;99.90;;;;;;5051603;28;20226;-52
2023/01/11 04:50:22;;;;;;;1999.90;450.67;;;5.80;99.90;;;;;;5052325;28;20262;-51
2023/01/11 04:52:50;;;;;;;1999.90;330.07;;;5.80;99.90;;;;;;5052053;28;20202;-51
2023/01/11 04:55:20;;;;;;;1099.30;157.70;;;5.80;99.90;;;;;;5042658;28;20229;-51
2023/01/11 04:57:48;;;;;;;1999.90;377.33;;;5.80;99.90;;;;;;5051812;28;20793;-52
2023/01/11 05:00:16;;;;;;;1999.90;430.83;;;5.90;99.90;;;;;;5051720;28;20265;-52
2023/01/11 05:02:45;;;;;;;660.77;106.80;;;5.80;99.90;;;;;;5037170;28;20633;-51
2023/01/11 05:05:13;;;;;;;815.87;126.10;;;5.90;99.90;;;;;;5045742;28;20233;-51
2023/01/11 05:07:41;;;;;;;996.27;174.53;;;5.90;99.90;;;;;;5051740;28;20336;-51
2023/01/11 05:10:10;;;;;;;1999.90;337.97;;;5.90;99.90;;;;;;5051649;28;20211;-51
2023/01/11 05:12:39;;;;;;;1999.90;434.30;;;5.80;99.90;;;;;;5051513;28;20252;-50
2023/01/11 05:15:09;;;;;;;1999.90;319.67;;;5.90;99.90;;;;;;5052121;28;20260;-53
2023/01/11 05:17:37;;;;;;;1095.23;164.73;;;6.00;99.90;;;;;;5052089;28;20267;-52
2023/01/11 05:20:07;;;;;;;356.73;71.70;;;6.00;99.90;;;;;;5027104;28;20295;-51
2023/01/11 05:22:35;;;;;;;1999.90;259.53;;;6.00;99.90;;;;;;5039687;28;20273;-52
2023/01/11 05:25:03;;;;;;;1697.57;275.87;;;6.00;99.90;;;;;;5037962;28;20206;-51
2023/01/11 05:27:31;;;;;;;1639.17;209.53;;;6.00;99.90;;;;;;5051511;28;20262;-51
2023/01/11 05:30:00;;;;;;;1999.90;345.33;;;6.00;99.90;;;;;;5051791;28;20300;-51
2023/01/11 05:32:29;;;;;;;1408.17;224.13;;;6.00;99.90;;;;;;5041957;28;20750;-52
2023/01/11 05:34:57;;;;;;;1999.90;427.77;;;6.10;99.90;;;;;;5051580;28;20767;-51
2023/01/11 05:37:25;;;;;;;1999.90;361.17;;;6.00;99.90;;;;;;5048899;28;20712;-52
2023/01/11 05:39:53;;;;;;;349.37;73.87;;;6.10;99.90;;;;;;5047841;28;20256;-52
2023/01/11 05:42:21;;;;;;;355.20;89.33;;;6.10;99.90;;;;;;5045797;28;20248;-52
2023/01/11 05:47:36;;;;;;;1193.87;195.17;;;6.20;99.90;;;;;;5051091;28;20225;-51
2023/01/11 05:50:05;;;;;;;1999.90;338.13;;;6.20;99.90;;;;;;5040406;28;20319;-51
2023/01/11 05:52:33;;;;;;;1238.47;159.13;;;6.20;99.90;;;;;;5051183;28;20396;-52
2023/01/11 05:55:01;;;;;;;311.03;82.27;;;6.20;99.90;;;;;;5051044;28;20252;-53
2023/01/11 05:57:29;;;;;;;1049.30;149.50;;;6.20;99.90;;;;;;5048476;28;20272;-52
2023/01/11 05:59:57;;;;;;;1018.80;146.30;;;6.20;99.90;;;;;;5050536;28;20606;-52
2023/01/11 06:02:25;;;;;;;1491.87;182.93;;;6.30;99.90;;;;;;5050416;28;20656;-52
2023/01/11 06:04:55;;;;;;;1999.90;297.53;;;6.20;99.90;;;;;;5044188;28;20226;-52
2023/01/11 06:07:24;;;;;;;1999.90;450.40;;;6.30;99.90;;;;;;5051295;28;20367;-51
2023/01/11 06:09:52;;;;;;;1423.27;184.30;;;6.20;99.90;;;;;;5051024;28;20299;-51
2023/01/11 06:12:20;;;;;;;1753.70;251.47;;;6.30;99.90;;;;;;5050650;28;20228;-52
2023/01/11 06:14:48;;;;;;;1322.10;209.17;;;6.30;99.90;;;;;;5042712;28;20288;-51
2023/01/11 06:17:16;;;;;;;803.50;179.03;;;6.30;99.90;;;;;;5046744;28;20236;-52
2023/01/11 06:19:44;;;;;;;426.17;90.17;;;6.40;99.90;;;;;;5031870;28;20296;-51
2023/01/11 06:22:13;;;;;;;1495.73;220.47;;;6.40;99.90;;;;;;5050712;28;20217;-52
2023/01/11 06:24:41;;;;;;;201.10;52.30;;;6.40;99.90;;;;;;5050921;28;20275;-52
2023/01/11 06:27:09;;;;;;;1799.70;263.67;;;6.40;99.90;;;;;;5050890;28;20317;-53
2023/01/11 06:29:37;;;;;;;1148.97;189.90;;;6.40;99.90;;;;;;5050497;28;20288;-53
2023/01/11 06:32:07;;;;;;;441.40;102.23;;;6.40;99.90;;;;;;5049818;28;20648;-52
2023/01/11 06:34:35;;;;;;;1478.27;248.87;;;6.50;99.90;;;;;;5023866;28;20295;-51
2023/01/11 06:37:03;;;;;;;531.63;92.87;;;6.40;99.90;;;;;;5050157;28;20721;-52
2023/01/11 06:39:32;;;;;;;151.27;57.97;;;6.40;99.90;;;;;;5033720;28;20244;-52
2023/01/11 06:42:00;;;;;;;371.87;74.90;;;6.50;99.90;;;;;;5050008;28;20247;-52
2023/01/11 06:44:28;;;;;;;1103.53;143.83;;;6.50;99.90;;;;;;5046811;28;20284;-51
2023/01/11 06:46:57;;;;;;;301.93;67.93;;;6.60;99.90;;;;;;5049790;28;20256;-51
2023/01/11 06:49:25;;;;;;;251.53;65.53;;;6.60;99.90;;;;;;5050152;28;20873;-52
2023/01/11 06:51:54;;;;;;;1543.73;217.97;;;6.60;99.90;;;;;;5025307;28;20237;-52
2023/01/11 06:54:24;;;;;;;930.53;134.03;;;6.60;99.90;;;;;;5029208;28;20200;-51
2023/01/11 06:56:54;;;;;;;1324.40;243.13;;;6.60;99.90;;;;;;5036735;28;20234;-53
2023/01/11 06:59:22;;;;;;;956.00;148.83;;;6.60;99.90;;;;;;5039266;28;20241;-52
2023/01/11 07:01:50;;;;;;;701.23;139.47;;;6.60;99.90;;;;;;5043415;28;20210;-51
2023/01/11 07:04:19;;;;;;;261.77;67.37;;;6.60;99.90;;;;;;5049635;28;20313;-53
2023/01/11 07:06:47;;;;;;;1014.87;169.20;;;6.60;99.90;;;;;;5049257;28;20698;-52
2023/01/11 07:09:15;;;;;;;515.23;102.77;;;6.60;99.90;;;;;;5039730;28;20283;-51
2023/01/11 07:11:43;;;;;;;1858.90;245.90;;;6.70;99.90;;;;;;5042490;28;20294;-52
2023/01/11 07:14:18;;;;;;;1226.13;225.53;;;6.70;99.90;;;;;;5049432;28;20208;-50
2023/01/11 07:16:46;;;;;;;1839.77;267.90;;;6.70;99.90;;;;;;5028108;28;20230;-52
2023/01/11 07:19:16;;;;;;;711.57;98.40;;;6.60;99.90;;;;;;5035964;28;20237;-51
2023/01/11 07:21:44;;;;;;;888.20;114.53;;;6.70;99.90;;;;;;5049290;28;20231;-52
2023/01/11 07:24:12;;;;;;;1999.90;325.87;;;6.70;99.90;;;;;;5045382;28;20330;-51
2023/01/11 07:26:41;;;;;;;1999.90;411.10;;;6.70;99.90;;;;;;5040567;28;20241;-51
2023/01/11 07:29:09;;;;;;;1943.60;292.50;;;6.70;99.90;;;;;;5049156;28;20217;-51
2023/01/11 07:31:38;;;;;;;1955.80;256.23;;;6.80;99.90;;;;;;5049092;28;20299;-52
2023/01/11 07:34:08;;;;;;;1999.90;363.27;;;6.70;99.90;;;;;;5021943;28;20206;-51
2023/01/11 07:36:38;;;;;;;1891.17;288.17;;;6.80;99.90;;;;;;5049337;28;20212;-51
2023/01/11 07:39:07;;;;;;;903.47;132.80;;;6.90;99.90;;;;;;5048742;28;20229;-52
2023/01/11 07:44:20;;;;;;;1999.90;382.40;;;6.90;99.90;;;;;;5048776;28;20274;-52
2023/01/11 07:46:50;;;;;;;1999.90;381.67;;;7.00;99.90;;;;;;5032600;28;20232;-52
2023/01/11 07:49:18;;;;;;;1999.90;370.27;;;6.90;99.90;;;;;;5048097;28;20218;-53
2023/01/11 07:51:50;;;;;;;1999.90;410.67;;;7.00;99.90;;;;;;5044711;28;20209;-53
2023/01/11 07:54:18;;;;;;;1999.90;433.33;;;7.00;99.90;;;;;;5032374;28;20629;-51
2023/01/11 07:56:47;;;;;;;1999.90;392.23;;;7.10;99.90;;;;;;5048665;28;20229;-51
2023/01/11 07:59:15;;;;;;;837.67;117.13;;;7.10;99.90;;;;;;5048673;28;20251;-51
2023/01/11 08:01:43;;;;;;;1999.90;340.70;;;7.10;99.90;;;;;;5046539;28;20264;-54
2023/01/11 08:04:13;;;;;;;1999.90;300.27;;;7.10;99.90;;;;;;5048639;28;20225;-52
2023/01/11 08:06:41;;;;;;;849.87;117.63;;;7.10;99.90;;;;;;5048563;28;20295;-52
2023/01/11 08:09:10;;;;;;;1929.50;269.63;;;7.10;99.90;;;;;;5048379;28;20320;-52
2023/01/11 08:14:41;;;;;;;1378.30;177.47;;;7.10;99.90;;;;;;5025452;28;20647;-52
2023/01/11 08:17:11;;;;;;;1634.90;229.00;;;7.20;99.90;;;;;;5048228;28;20260;-51
2023/01/11 08:19:41;;;;;;;1999.90;343.93;;;7.10;99.90;;;;;;5048562;28;20241;-52
2023/01/11 08:22:11;;;;;;;1149.50;145.27;;;7.20;99.90;;;;;;5048478;28;20247;-51
2023/01/11 08:24:39;;;;;;;1096.70;211.40;;;7.20;99.90;;;;;;5048244;28;20271;-52
2023/01/11 08:27:07;;;;;;;1999.90;283.83;;;7.20;99.90;;;;;;5039561;28;20261;-51
2023/01/11 08:29:35;;;;;;;1999.90;389.33;;;7.30;99.90;;;;;;5048569;28;20761;-52
2023/01/11 08:32:04;;;;;;;951.67;125.33;;;7.30;99.90;;;;;;5048532;28;20632;-53
2023/01/11 08:34:34;;;;;;;1076.77;145.83;;;7.30;99.90;;;;;;5048966;28;20256;-51
2023/01/11 08:37:04;;;;;;;1218.67;196.27;;;7.30;99.90;;;;;;5041540;28;20609;-51
2023/01/11 08:39:32;;;;;;;733.73;137.17;;;7.30;99.90;;;;;;5048529;28;20278;-53
2023/01/11 08:42:02;;;;;;;1735.60;235.93;;;7.40;99.90;;;;;;5047961;28;20236;-52
2023/01/11 08:44:30;;;;;;;1771.10;257.07;;;7.40;99.90;;;;;;5048508;28;20279;-52
2023/01/11 08:47:02;;;;;;;514.87;94.10;;;7.50;99.90;;;;;;5027216;28;20209;-52
2023/01/11 08:49:30;;;;;;;162.93;53.53;;;7.50;99.90;;;;;;5025001;28;20216;-51
2023/01/11 08:51:59;;;;;;;707.40;144.27;;;7.50;99.90;;;;;;5034931;28;20206;-52
2023/01/11 08:54:28;;;;;;;1147.53;168.63;;;7.60;99.90;;;;;;5039917;28;20213;-51
2023/01/11 08:56:57;;;;;;;1402.20;214.57;;;7.50;99.90;;;;;;5041650;28;20209;-53
2023/01/11 08:59:25;;;;;;;162.40;50.53;;;7.60;99.90;;;;;;5047825;28;20763;-51
2023/01/11 09:01:53;;;;;;;630.07;147.63;;;7.60;99.90;;;;;;5020201;28;20698;-52
2023/01/11 09:04:21;;;;;;;458.83;95.33;;;7.60;99.90;;;;;;5037142;28;20210;-51
2023/01/11 09:06:53;;;;;;;527.60;88.73;;;7.60;99.90;;;;;;5041460;28;20255;-52
2023/01/11 09:09:21;;;;;;;1148.53;197.70;;;7.60;99.90;;;;;;5041759;28;20210;-53
2023/01/11 09:11:57;;;;;;;286.97;68.60;;;7.70;99.90;;;;;;5046450;28;20210;-53
2023/01/11 09:14:27;;;;;;;1136.57;186.47;;;7.70;99.90;;;;;;5035471;28;20205;-51
2023/01/11 09:16:55;;;;;;;528.27;105.33;;;7.70;99.90;;;;;;5051745;28;20259;-53
2023/01/11 09:19:23;;;;;;;857.97;141.17;;;7.70;99.90;;;;;;5052179;28;20201;-52
2023/01/11 09:21:52;;;;;;;1182.57;227.93;;;7.80;99.90;;;;;;5051732;28;20300;-52
2023/01/11 09:24:20;;;;;;;663.40;137.07;;;7.70;99.90;;;;;;5051545;28;20648;-51
2023/01/11 09:26:49;;;;;;;295.07;65.67;;;7.80;99.90;;;;;;5051926;28;20237;-51
2023/01/11 09:29:18;;;;;;;146.17;45.60;;;7.80;99.90;;;;;;5051623;28;20212;-52
2023/01/11 09:31:46;;;;;;;204.00;49.87;;;7.90;99.90;;;;;;5051546;28;20297;-52
2023/01/11 09:34:14;;;;;;;1748.40;215.17;;;7.90;99.90;;;;;;5046518;28;20202;-51
2023/01/11 09:36:44;;;;;;;1084.03;184.83;;;7.90;99.90;;;;;;5051039;28;20293;-51
2023/01/11 09:39:14;;;;;;;943.43;232.50;;;7.90;99.90;;;;;;5051259;28;20758;-51
2023/01/11 09:42:13;;;;;;;403.13;76.30;;;7.90;99.90;;;;;;5049583;28;20294;-51
2023/01/11 09:44:49;;;;;;;958.83;131.27;;;8.00;99.90;;;;;;5028433;28;20699;-51
2023/01/11 09:47:25;;;;;;;1016.97;163.63;;;8.00;99.90;;;;;;5026228;28;20978;-51
2023/01/11 09:49:57;;;;;;;257.07;59.63;;;8.00;99.90;;;;;;5024655;28;20294;-52
2023/01/11 09:52:29;;;;;;;679.97;154.57;;;8.00;99.90;;;;;;5051020;28;20817;-54
2023/01/11 09:54:58;;;;;;;136.87;37.40;;;8.10;99.90;;;;;;5046005;28;20285;-51
2023/01/11 09:57:46;;;;;;;866.33;290.47;;;8.10;99.90;;;;;;5051004;28;20245;-51
2023/01/11 10:00:23;;;;;;;295.63;80.97;;;8.20;99.90;;;;;;5026220;28;20206;-51
2023/01/11 10:03:14;;;;;;;76.83;30.60;;;8.20;99.90;;;;;;5051013;28;20244;-51
2023/01/11 10:05:58;;;;;;;279.87;67.47;;;8.20;99.90;;;;;;5050837;28;20261;-51
2023/01/11 10:08:50;;;;;;;132.23;32.53;;;8.20;99.90;;;;;;5050666;28;20268;-51
2023/01/11 10:11:50;;;;;;;383.40;89.77;;;8.20;99.90;;;;;;5037689;28;20214;-51
2023/01/11 10:14:56;;;;;;;145.40;34.23;;;8.20;99.90;;;;;;5031985;28;20213;-53
2023/01/11 10:17:54;;;;;;;397.47;97.60;;;8.30;99.90;;;;;;5026724;28;20226;-52
2023/01/11 10:20:46;;;;;;;1384.63;208.63;;;8.30;99.90;;;;;;5049449;28;20205;-52
2023/01/11 10:23:23;;;;;;;223.80;38.37;;;8.30;99.90;;;;;;5033756;28;20206;-50
2023/01/11 10:25:55;;;;;;;79.63;22.07;;;8.40;99.90;;;;;;5030055;28;20287;-52
2023/01/11 10:28:30;;;;;;;424.27;78.23;;;8.40;99.90;;;;;;5030520;28;20222;-51
2023/01/11 10:31:25;;;;;;;247.17;58.30;;;8.50;99.90;;;;;;5029759;28;20202;-53
2023/01/11 10:34:14;;;;;;;630.77;112.73;;;8.50;99.90;;;;;;5030188;28;20608;-52
2023/01/11 10:37:05;;;;;;;261.53;42.93;;;8.50;99.90;;;;;;5029810;28;20577;-52
2023/01/11 10:39:58;;;;;;;1265.47;221.03;;;8.50;99.90;;;;;;5030468;28;20460;-53
2023/01/11 10:42:28;;;;;;;1498.60;212.20;;;8.50;99.90;;;;;;5030155;28;20241;-52
2023/01/11 10:45:01;;;;;;;554.60;100.07;;;8.50;99.90;;;;;;5030075;28;20218;-52
2023/01/11 10:47:38;;;;;;;534.40;94.43;;;8.60;99.90;;;;;;5030094;28;20220;-52
2023/01/11 10:50:19;;;;;;;1264.10;224.03;;;8.60;99.90;;;;;;5023921;28;20241;-52
2023/01/11 10:52:56;;;;;;;812.10;186.13;;;8.60;99.90;;;;;;5041007;28;20678;-52
2023/01/11 10:55:32;;;;;;;477.63;100.13;;;8.60;99.90;;;;;;5038368;28;20199;-52
2023/01/11 10:58:18;;;;;;;1710.13;225.80;;;8.60;99.90;;;;;;5027182;28;20232;-52
2023/01/11 11:00:55;;;;;;;563.27;95.50;;;8.70;99.90;;;;;;5029453;28;20699;-51
2023/01/11 11:03:46;;;;;;;160.53;34.03;;;8.60;99.90;;;;;;5018921;28;20210;-52
2023/01/11 11:06:23;;;;;;;316.40;65.10;;;8.60;99.90;;;;;;5029880;28;20309;-52
2023/01/11 11:08:57;;;;;;;860.43;168.50;;;8.60;99.90;;;;;;5029832;28;20272;-51
2023/01/11 11:11:31;;;;;;;1206.63;200.37;;;8.60;99.90;;;;;;5029809;28;20209;-52
2023/01/11 11:14:04;;;;;;;224.87;69.33;;;8.60;99.90;;;;;;5025337;28;20252;-52
2023/01/11 11:16:55;;;;;;;789.83;127.03;;;8.70;99.90;;;;;;5025507;28;20200;-52
2023/01/11 11:19:32;;;;;;;1283.20;167.17;;;8.70;99.90;;;;;;5023889;28;20246;-51
2023/01/11 11:22:00;;;;;;;660.30;130.77;;;8.70;99.90;;;;;;5027628;28;20279;-51
2023/01/11 11:24:34;;;;;;;1142.60;160.97;;;8.70;99.90;;;;;;5020915;28;20214;-51
2023/01/11 11:27:15;;;;;;;1613.03;221.37;;;8.80;99.90;;;;;;5027648;28;20226;-51
2023/01/11 11:29:51;;;;;;;205.07;47.43;;;8.80;99.90;;;;;;5028162;28;20210;-52
2023/01/11 11:32:25;;;;;;;863.80;170.80;;;8.80;99.90;;;;;;5028807;28;20791;-51
2023/01/11 11:34:54;;;;;;;1232.77;222.53;;;8.80;99.90;;;;;;5028865;28;20249;-53
2023/01/11 11:37:31;;;;;;;1311.40;359.90;;;8.80;99.90;;;;;;5029122;28;20254;-51
2023/01/11 11:39:59;;;;;;;495.90;73.83;;;8.80;99.90;;;;;;5029037;28;20247;-51
2023/01/11 11:42:27;;;;;;;887.90;130.10;;;8.90;99.90;;;;;;5029277;28;20245;-51
2023/01/11 11:45:14;;;;;;;495.00;102.10;;;8.90;99.90;;;;;;5028839;28;20289;-52
2023/01/11 11:47:43;;;;;;;475.20;91.43;;;8.90;99.90;;;;;;5018032;28;20700;-52
2023/01/11 11:50:28;;;;;;;699.93;115.17;;;8.90;99.90;;;;;;5029434;28;20218;-52
2023/01/11 11:53:26;;;;;;;576.37;96.83;;;8.90;99.90;;;;;;5028295;28;20618;-52
2023/01/11 11:55:55;;;;;;;1999.90;357.97;;;8.90;99.90;;;;;;5029143;28;20234;-51
2023/01/11 11:58:25;;;;;;;1042.83;308.03;;;8.90;99.90;;;;;;5029490;28;20222;-52
2023/01/11 12:00:54;;;;;;;1392.87;246.80;;;8.90;99.90;;;;;;5029128;28;20236;-52
2023/01/11 12:03:28;;;;;;;1199.20;252.53;;;8.90;99.90;;;;;;5028679;28;20293;-52
2023/01/11 12:06:00;;;;;;;1999.90;448.07;;;8.90;99.90;;;;;;5029253;28;20205;-52
2023/01/11 12:08:31;;;;;;;863.23;164.40;;;8.90;99.90;;;;;;5022634;28;20270;-51
2023/01/11 12:11:03;;;;;;;656.17;130.60;;;8.80;99.90;;;;;;5027210;28;20202;-52
2023/01/11 12:13:34;;;;;;;708.33;135.97;;;8.90;99.90;;;;;;5015103;28;20218;-53
2023/01/11 12:16:04;;;;;;;395.57;74.23;;;8.90;99.90;;;;;;5027553;28;20289;-51
2023/01/11 12:18:41;;;;;;;1082.60;173.33;;;8.90;99.90;;;;;;5028183;28;20257;-52
2023/01/11 12:21:18;;;;;;;518.73;108.03;;;8.90;99.90;;;;;;5028682;28;20669;-52
2023/01/11 12:23:47;;;;;;;90.17;36.53;;;8.90;99.90;;;;;;5028331;28;20292;-52
2023/01/11 12:26:25;;;;;;;130.70;38.87;;;8.90;99.90;;;;;;5017214;28;20750;-52
2023/01/11 12:29:32;;;;;;;57.77;21.10;;;9.00;99.90;;;;;;5028709;28;20276;-51
2023/01/11 12:32:18;;;;;;;198.47;47.77;;;9.10;99.90;;;;;;5027529;28;20709;-52
2023/01/11 12:35:04;;;;;;;1325.40;167.63;;;9.10;99.90;;;;;;5028300;28;20225;-52
2023/01/11 12:37:52;;;;;;;120.73;44.83;;;9.10;99.90;;;;;;5024502;28;20258;-52
2023/01/11 12:40:25;;;;;;;251.33;56.00;;;9.10;99.90;;;;;;5028708;28;20198;-51
2023/01/11 12:43:08;;;;;;;890.67;122.97;;;9.10;99.90;;;;;;5029857;28;20242;-53
2023/01/11 12:45:49;;;;;;;1919.00;323.37;;;9.10;99.90;;;;;;5030278;28;20244;-51
2023/01/11 12:48:32;;;;;;;339.57;101.17;;;9.10;99.90;;;;;;5025161;28;20229;-52
2023/01/11 12:51:18;;;;;;;17.73;14.73;;;9.10;99.90;;;;;;5032780;28;20293;-52
2023/01/11 12:54:00;;;;;;;1966.90;386.77;;;9.20;99.90;;;;;;5031015;28;20252;-50
2023/01/11 12:56:41;;;;;;;1478.90;221.50;;;9.20;99.90;;;;;;5023075;28;20697;-52
2023/01/11 12:59:22;;;;;;;103.07;24.07;;;9.20;99.90;;;;;;5032253;28;20226;-52
2023/01/11 13:01:58;;;;;;;534.70;122.13;;;9.30;99.90;;;;;;5032445;28;20268;-52